sensor_id;sensor_type;location;lat;lon;timestamp;P1;durP1;ratioP1;P2;durP2;ratioP2
23362;SDS011;11853;48.080;11.960;2023-06-10T00:00:37;6.82;;;6.20;;
23362;SDS011;11853;48.080;11.960;2023-06-10T00:03:03;6.95;;;6.28;;
23362;SDS011;11853;48.080;11.960;2023-06-10T00:05:29;6.70;;;6.10;;
23362;SDS011;11853;48.080;11.960;2023-06-10T00:07:55;6.80;;;6.20;;
23362;SDS011;11853;48.080;11.960;2023-06-10T00:10:22;6.75;;;6.25;;
23362;SDS011;11853;48.080;11.960;2023-06-10T00:12:50;6.88;;;6.28;;
23362;SDS011;11853;48.080;11.960;2023-06-10T00:15:16;7.40;;;6.55;;
23362;SDS011;11853;48.080;11.960;2023-06-10T00:17:42;6.90;;;6.32;;
23362;SDS011;11853;48.080;11.960;2023-06-10T00:20:08;6.97;;;6.38;;
23362;SDS011;11853;48.080;11.960;2023-06-10T00:22:37;7.63;;;6.93;;
23362;SDS011;11853;48.080;11.960;2023-06-10T00:25:05;6.82;;;6.22;;
23362;SDS011;11853;48.080;11.960;2023-06-10T00:27:32;6.53;;;5.95;;
23362;SDS011;11853;48.080;11.960;2023-06-10T00:30:03;7.13;;;6.53;;
23362;SDS011;11853;48.080;11.960;2023-06-10T00:32:32;7.47;;;6.68;;
23362;SDS011;11853;48.080;11.960;2023-06-10T00:34:58;7.72;;;6.93;;
23362;SDS011;11853;48.080;11.960;2023-06-10T00:37:24;7.10;;;6.40;;
23362;SDS011;11853;48.080;11.960;2023-06-10T00:39:49;7.85;;;7.15;;
23362;SDS011;11853;48.080;11.960;2023-06-10T00:42:15;7.40;;;6.70;;
23362;SDS011;11853;48.080;11.960;2023-06-10T00:44:41;7.30;;;6.70;;
23362;SDS011;11853;48.080;11.960;2023-06-10T00:47:07;6.97;;;6.38;;
23362;SDS011;11853;48.080;11.960;2023-06-10T00:49:33;7.03;;;6.43;;
23362;SDS011;11853;48.080;11.960;2023-06-10T00:51:59;8.32;;;7.53;;
23362;SDS011;11853;48.080;11.960;2023-06-10T00:54:27;7.20;;;6.60;;
23362;SDS011;11853;48.080;11.960;2023-06-10T00:56:53;9.13;;;7.75;;
23362;SDS011;11853;48.080;11.960;2023-06-10T00:59:20;8.05;;;7.35;;
23362;SDS011;11853;48.080;11.960;2023-06-10T01:01:46;7.65;;;7.05;;
23362;SDS011;11853;48.080;11.960;2023-06-10T01:04:15;8.68;;;7.88;;
23362;SDS011;11853;48.080;11.960;2023-06-10T01:14:41;8.13;;;7.32;;
23362;SDS011;11853;48.080;11.960;2023-06-10T01:17:10;8.80;;;7.95;;
23362;SDS011;11853;48.080;11.960;2023-06-10T01:19:36;9.25;;;8.25;;
23362;SDS011;11853;48.080;11.960;2023-06-10T01:22:03;8.35;;;7.65;;
23362;SDS011;11853;48.080;11.960;2023-06-10T01:24:29;8.15;;;7.35;;
23362;SDS011;11853;48.080;11.960;2023-06-10T01:26:58;8.25;;;7.57;;
23362;SDS011;11853;48.080;11.960;2023-06-10T01:32:21;8.45;;;7.65;;
23362;SDS011;11853;48.080;11.960;2023-06-10T01:34:55;9.13;;;8.30;;
23362;SDS011;11853;48.080;11.960;2023-06-10T01:37:22;8.15;;;7.32;;
23362;SDS011;11853;48.080;11.960;2023-06-10T01:39:50;8.90;;;8.00;;
23362;SDS011;11853;48.080;11.960;2023-06-10T01:42:17;9.25;;;8.35;;
23362;SDS011;11853;48.080;11.960;2023-06-10T01:44:43;8.02;;;7.32;;
23362;SDS011;11853;48.080;11.960;2023-06-10T01:47:09;8.73;;;7.93;;
23362;SDS011;11853;48.080;11.960;2023-06-10T01:49:35;8.65;;;7.85;;
23362;SDS011;11853;48.080;11.960;2023-06-10T01:52:00;8.20;;;7.50;;
23362;SDS011;11853;48.080;11.960;2023-06-10T01:54:26;9.45;;;8.55;;
23362;SDS011;11853;48.080;11.960;2023-06-10T01:56:52;9.15;;;8.23;;
23362;SDS011;11853;48.080;11.960;2023-06-10T01:59:17;8.80;;;8.07;;
23362;SDS011;11853;48.080;11.960;2023-06-10T02:01:43;9.77;;;8.88;;
23362;SDS011;11853;48.080;11.960;2023-06-10T02:04:09;9.55;;;8.65;;
23362;SDS011;11853;48.080;11.960;2023-06-10T02:06:34;9.85;;;8.85;;
23362;SDS011;11853;48.080;11.960;2023-06-10T02:09:00;9.15;;;8.35;;
23362;SDS011;11853;48.080;11.960;2023-06-10T02:11:26;8.55;;;7.75;;
23362;SDS011;11853;48.080;11.960;2023-06-10T02:13:52;8.98;;;8.18;;
23362;SDS011;11853;48.080;11.960;2023-06-10T02:16:18;9.43;;;8.52;;
23362;SDS011;11853;48.080;11.960;2023-06-10T02:18:44;9.43;;;8.63;;
23362;SDS011;11853;48.080;11.960;2023-06-10T02:21:09;9.15;;;8.35;;
23362;SDS011;11853;48.080;11.960;2023-06-10T02:23:35;9.02;;;8.13;;
23362;SDS011;11853;48.080;11.960;2023-06-10T02:26:01;9.25;;;8.35;;
23362;SDS011;11853;48.080;11.960;2023-06-10T02:28:27;9.25;;;8.38;;
23362;SDS011;11853;48.080;11.960;2023-06-10T02:30:53;9.80;;;8.35;;
23362;SDS011;11853;48.080;11.960;2023-06-10T02:33:22;9.27;;;8.38;;
23362;SDS011;11853;48.080;11.960;2023-06-10T02:35:48;9.50;;;8.60;;
23362;SDS011;11853;48.080;11.960;2023-06-10T02:38:14;10.00;;;9.00;;
23362;SDS011;11853;48.080;11.960;2023-06-10T02:40:39;9.65;;;8.48;;
23362;SDS011;11853;48.080;11.960;2023-06-10T02:43:05;9.40;;;8.50;;
23362;SDS011;11853;48.080;11.960;2023-06-10T02:45:31;10.23;;;8.25;;
23362;SDS011;11853;48.080;11.960;2023-06-10T02:47:56;9.23;;;8.27;;
23362;SDS011;11853;48.080;11.960;2023-06-10T02:50:22;9.05;;;8.15;;
23362;SDS011;11853;48.080;11.960;2023-06-10T02:52:48;9.35;;;8.48;;
23362;SDS011;11853;48.080;11.960;2023-06-10T02:55:15;9.25;;;8.25;;
23362;SDS011;11853;48.080;11.960;2023-06-10T02:57:40;9.55;;;8.75;;
23362;SDS011;11853;48.080;11.960;2023-06-10T03:00:06;9.73;;;8.73;;
23362;SDS011;11853;48.080;11.960;2023-06-10T03:02:36;9.55;;;8.65;;
23362;SDS011;11853;48.080;11.960;2023-06-10T03:05:04;10.23;;;9.23;;
23362;SDS011;11853;48.080;11.960;2023-06-10T03:07:30;10.77;;;9.68;;
23362;SDS011;11853;48.080;11.960;2023-06-10T03:09:57;10.90;;;9.63;;
23362;SDS011;11853;48.080;11.960;2023-06-10T03:12:23;10.90;;;9.90;;
23362;SDS011;11853;48.080;11.960;2023-06-10T03:14:49;11.45;;;10.35;;
23362;SDS011;11853;48.080;11.960;2023-06-10T03:17:15;12.15;;;10.95;;
23362;SDS011;11853;48.080;11.960;2023-06-10T03:19:40;12.65;;;10.95;;
23362;SDS011;11853;48.080;11.960;2023-06-10T03:22:07;10.88;;;9.88;;
23362;SDS011;11853;48.080;11.960;2023-06-10T03:24:37;11.55;;;10.45;;
23362;SDS011;11853;48.080;11.960;2023-06-10T03:27:08;11.20;;;10.20;;
23362;SDS011;11853;48.080;11.960;2023-06-10T03:29:35;12.10;;;10.60;;
23362;SDS011;11853;48.080;11.960;2023-06-10T03:32:01;10.75;;;9.77;;
23362;SDS011;11853;48.080;11.960;2023-06-10T03:37:48;11.35;;;10.20;;
23362;SDS011;11853;48.080;11.960;2023-06-10T03:40:14;11.85;;;10.75;;
23362;SDS011;11853;48.080;11.960;2023-06-10T03:42:40;11.15;;;10.07;;
23362;SDS011;11853;48.080;11.960;2023-06-10T03:45:05;12.38;;;11.07;;
23362;SDS011;11853;48.080;11.960;2023-06-10T03:47:34;10.73;;;9.63;;
23362;SDS011;11853;48.080;11.960;2023-06-10T03:50:01;12.27;;;10.95;;
23362;SDS011;11853;48.080;11.960;2023-06-10T03:52:28;11.82;;;10.43;;
23362;SDS011;11853;48.080;11.960;2023-06-10T03:54:54;11.13;;;10.02;;
23362;SDS011;11853;48.080;11.960;2023-06-10T03:57:20;10.45;;;8.98;;
23362;SDS011;11853;48.080;11.960;2023-06-10T03:59:46;11.05;;;10.13;;
23362;SDS011;11853;48.080;11.960;2023-06-10T04:02:11;11.15;;;10.13;;
23362;SDS011;11853;48.080;11.960;2023-06-10T04:04:37;11.10;;;10.10;;
23362;SDS011;11853;48.080;11.960;2023-06-10T04:07:03;11.55;;;10.35;;
23362;SDS011;11853;48.080;11.960;2023-06-10T04:09:30;11.45;;;10.25;;
23362;SDS011;11853;48.080;11.960;2023-06-10T04:11:55;12.40;;;11.20;;
23362;SDS011;11853;48.080;11.960;2023-06-10T04:14:21;12.10;;;10.90;;
23362;SDS011;11853;48.080;11.960;2023-06-10T04:16:47;12.32;;;11.13;;
23362;SDS011;11853;48.080;11.960;2023-06-10T04:19:13;12.52;;;11.23;;
23362;SDS011;11853;48.080;11.960;2023-06-10T04:21:38;13.48;;;12.10;;
23362;SDS011;11853;48.080;11.960;2023-06-10T04:24:04;12.40;;;11.20;;
23362;SDS011;11853;48.080;11.960;2023-06-10T04:26:30;13.18;;;11.85;;
23362;SDS011;11853;48.080;11.960;2023-06-10T04:28:55;13.20;;;11.90;;
23362;SDS011;11853;48.080;11.960;2023-06-10T04:31:21;13.40;;;12.10;;
23362;SDS011;11853;48.080;11.960;2023-06-10T04:33:47;13.10;;;11.90;;
23362;SDS011;11853;48.080;11.960;2023-06-10T04:36:12;12.45;;;11.35;;
23362;SDS011;11853;48.080;11.960;2023-06-10T04:38:39;11.73;;;10.60;;
23362;SDS011;11853;48.080;11.960;2023-06-10T04:41:05;12.20;;;11.10;;
23362;SDS011;11853;48.080;11.960;2023-06-10T04:43:31;12.63;;;11.43;;
23362;SDS011;11853;48.080;11.960;2023-06-10T04:45:57;12.75;;;11.55;;
23362;SDS011;11853;48.080;11.960;2023-06-10T04:48:22;12.68;;;10.90;;
23362;SDS011;11853;48.080;11.960;2023-06-10T04:50:49;11.70;;;10.50;;
23362;SDS011;11853;48.080;11.960;2023-06-10T04:53:15;12.82;;;11.52;;
23362;SDS011;11853;48.080;11.960;2023-06-10T04:55:41;11.77;;;10.60;;
23362;SDS011;11853;48.080;11.960;2023-06-10T04:58:09;11.65;;;10.48;;
23362;SDS011;11853;48.080;11.960;2023-06-10T05:00:34;13.02;;;11.77;;
23362;SDS011;11853;48.080;11.960;2023-06-10T05:03:00;12.75;;;11.25;;
23362;SDS011;11853;48.080;11.960;2023-06-10T05:05:26;14.93;;;12.00;;
23362;SDS011;11853;48.080;11.960;2023-06-10T05:07:51;12.77;;;11.50;;
23362;SDS011;11853;48.080;11.960;2023-06-10T05:10:17;12.98;;;11.25;;
23362;SDS011;11853;48.080;11.960;2023-06-10T05:12:43;13.98;;;11.65;;
23362;SDS011;11853;48.080;11.960;2023-06-10T05:15:09;14.45;;;11.93;;
23362;SDS011;11853;48.080;11.960;2023-06-10T05:17:35;12.60;;;11.35;;
23362;SDS011;11853;48.080;11.960;2023-06-10T05:20:01;12.95;;;11.63;;
23362;SDS011;11853;48.080;11.960;2023-06-10T05:22:27;13.07;;;11.75;;
23362;SDS011;11853;48.080;11.960;2023-06-10T05:24:53;13.30;;;11.52;;
23362;SDS011;11853;48.080;11.960;2023-06-10T05:27:19;12.73;;;11.43;;
23362;SDS011;11853;48.080;11.960;2023-06-10T05:29:44;12.63;;;11.15;;
23362;SDS011;11853;48.080;11.960;2023-06-10T05:32:13;13.98;;;11.63;;
23362;SDS011;11853;48.080;11.960;2023-06-10T05:34:39;11.82;;;10.63;;
23362;SDS011;11853;48.080;11.960;2023-06-10T05:37:05;11.82;;;10.63;;
23362;SDS011;11853;48.080;11.960;2023-06-10T05:39:30;10.45;;;9.45;;
23362;SDS011;11853;48.080;11.960;2023-06-10T05:41:56;12.10;;;10.90;;
23362;SDS011;11853;48.080;11.960;2023-06-10T05:44:24;12.18;;;10.27;;
23362;SDS011;11853;48.080;11.960;2023-06-10T05:46:50;11.75;;;9.55;;
23362;SDS011;11853;48.080;11.960;2023-06-10T05:49:16;11.70;;;10.45;;
23362;SDS011;11853;48.080;11.960;2023-06-10T05:51:41;11.77;;;10.65;;
23362;SDS011;11853;48.080;11.960;2023-06-10T05:54:07;10.43;;;9.50;;
23362;SDS011;11853;48.080;11.960;2023-06-10T05:56:33;10.07;;;9.05;;
23362;SDS011;11853;48.080;11.960;2023-06-10T05:58:59;9.93;;;8.95;;
23362;SDS011;11853;48.080;11.960;2023-06-10T06:01:24;10.52;;;9.52;;
23362;SDS011;11853;48.080;11.960;2023-06-10T06:03:50;9.70;;;8.80;;
23362;SDS011;11853;48.080;11.960;2023-06-10T06:06:16;10.50;;;9.45;;
23362;SDS011;11853;48.080;11.960;2023-06-10T06:08:41;11.45;;;10.10;;
23362;SDS011;11853;48.080;11.960;2023-06-10T06:11:07;10.40;;;9.35;;
23362;SDS011;11853;48.080;11.960;2023-06-10T06:13:33;9.95;;;9.15;;
23362;SDS011;11853;48.080;11.960;2023-06-10T06:15:58;10.48;;;9.52;;
23362;SDS011;11853;48.080;11.960;2023-06-10T06:18:24;9.35;;;8.43;;
23362;SDS011;11853;48.080;11.960;2023-06-10T06:20:50;10.35;;;9.23;;
23362;SDS011;11853;48.080;11.960;2023-06-10T06:23:15;10.55;;;9.32;;
23362;SDS011;11853;48.080;11.960;2023-06-10T06:25:41;9.50;;;8.68;;
23362;SDS011;11853;48.080;11.960;2023-06-10T06:28:07;9.05;;;8.15;;
23362;SDS011;11853;48.080;11.960;2023-06-10T06:30:34;9.77;;;8.45;;
23362;SDS011;11853;48.080;11.960;2023-06-10T06:33:00;9.15;;;8.35;;
23362;SDS011;11853;48.080;11.960;2023-06-10T06:35:26;9.23;;;8.35;;
23362;SDS011;11853;48.080;11.960;2023-06-10T06:37:52;8.60;;;7.55;;
23362;SDS011;11853;48.080;11.960;2023-06-10T06:40:17;8.85;;;8.02;;
23362;SDS011;11853;48.080;11.960;2023-06-10T06:42:44;8.77;;;7.97;;
23362;SDS011;11853;48.080;11.960;2023-06-10T06:45:09;10.32;;;8.55;;
23362;SDS011;11853;48.080;11.960;2023-06-10T06:47:35;9.00;;;8.20;;
23362;SDS011;11853;48.080;11.960;2023-06-10T06:50:01;9.18;;;8.27;;
23362;SDS011;11853;48.080;11.960;2023-06-10T06:52:27;9.18;;;8.32;;
23362;SDS011;11853;48.080;11.960;2023-06-10T06:54:53;8.30;;;7.60;;
23362;SDS011;11853;48.080;11.960;2023-06-10T06:57:19;8.30;;;7.60;;
23362;SDS011;11853;48.080;11.960;2023-06-10T06:59:44;9.48;;;8.57;;
23362;SDS011;11853;48.080;11.960;2023-06-10T07:02:10;9.05;;;8.15;;
23362;SDS011;11853;48.080;11.960;2023-06-10T07:04:36;9.57;;;7.60;;
23362;SDS011;11853;48.080;11.960;2023-06-10T07:07:02;9.00;;;8.27;;
23362;SDS011;11853;48.080;11.960;2023-06-10T07:09:27;8.88;;;7.97;;
23362;SDS011;11853;48.080;11.960;2023-06-10T07:11:53;10.15;;;9.15;;
23362;SDS011;11853;48.080;11.960;2023-06-10T07:14:19;10.02;;;8.93;;
23362;SDS011;11853;48.080;11.960;2023-06-10T07:16:44;7.85;;;7.15;;
23362;SDS011;11853;48.080;11.960;2023-06-10T07:19:11;9.07;;;8.18;;
23362;SDS011;11853;48.080;11.960;2023-06-10T07:21:36;8.25;;;7.50;;
23362;SDS011;11853;48.080;11.960;2023-06-10T07:24:03;8.25;;;7.50;;
23362;SDS011;11853;48.080;11.960;2023-06-10T07:26:29;8.15;;;7.35;;
23362;SDS011;11853;48.080;11.960;2023-06-10T07:28:55;8.00;;;7.20;;
23362;SDS011;11853;48.080;11.960;2023-06-10T07:31:21;8.73;;;7.38;;
23362;SDS011;11853;48.080;11.960;2023-06-10T07:33:48;7.28;;;6.68;;
23362;SDS011;11853;48.080;11.960;2023-06-10T07:36:13;6.95;;;6.35;;
23362;SDS011;11853;48.080;11.960;2023-06-10T07:38:39;6.47;;;5.88;;
23362;SDS011;11853;48.080;11.960;2023-06-10T07:41:07;6.75;;;6.05;;
23362;SDS011;11853;48.080;11.960;2023-06-10T07:43:33;6.18;;;5.65;;
23362;SDS011;11853;48.080;11.960;2023-06-10T07:45:59;6.25;;;5.72;;
23362;SDS011;11853;48.080;11.960;2023-06-10T07:48:25;7.20;;;6.15;;
23362;SDS011;11853;48.080;11.960;2023-06-10T07:50:51;6.47;;;5.97;;
23362;SDS011;11853;48.080;11.960;2023-06-10T07:53:17;6.63;;;6.03;;
23362;SDS011;11853;48.080;11.960;2023-06-10T07:55:43;6.63;;;5.95;;
23362;SDS011;11853;48.080;11.960;2023-06-10T07:58:09;6.30;;;5.80;;
23362;SDS011;11853;48.080;11.960;2023-06-10T08:00:35;6.32;;;5.80;;
23362;SDS011;11853;48.080;11.960;2023-06-10T08:03:00;6.63;;;6.03;;
23362;SDS011;11853;48.080;11.960;2023-06-10T08:05:26;6.95;;;6.35;;
23362;SDS011;11853;48.080;11.960;2023-06-10T08:07:52;6.10;;;5.60;;
23362;SDS011;11853;48.080;11.960;2023-06-10T08:10:17;6.00;;;5.50;;
23362;SDS011;11853;48.080;11.960;2023-06-10T08:12:43;6.18;;;5.30;;
23362;SDS011;11853;48.080;11.960;2023-06-10T08:15:09;6.15;;;5.55;;
23362;SDS011;11853;48.080;11.960;2023-06-10T08:17:35;7.95;;;5.72;;
23362;SDS011;11853;48.080;11.960;2023-06-10T08:20:00;6.18;;;5.53;;
23362;SDS011;11853;48.080;11.960;2023-06-10T08:22:27;6.65;;;6.05;;
23362;SDS011;11853;48.080;11.960;2023-06-10T08:24:54;5.90;;;5.40;;
23362;SDS011;11853;48.080;11.960;2023-06-10T08:27:21;6.47;;;5.97;;
23362;SDS011;11853;48.080;11.960;2023-06-10T08:29:46;6.25;;;5.65;;
23362;SDS011;11853;48.080;11.960;2023-06-10T08:32:12;5.47;;;5.00;;
23362;SDS011;11853;48.080;11.960;2023-06-10T08:34:38;6.05;;;5.55;;
23362;SDS011;11853;48.080;11.960;2023-06-10T08:37:04;5.72;;;5.13;;
23362;SDS011;11853;48.080;11.960;2023-06-10T08:39:30;5.78;;;5.28;;
23362;SDS011;11853;48.080;11.960;2023-06-10T08:45:16;4.68;;;4.28;;
23362;SDS011;11853;48.080;11.960;2023-06-10T08:47:44;4.70;;;4.35;;
23362;SDS011;11853;48.080;11.960;2023-06-10T08:50:11;5.63;;;4.95;;
23362;SDS011;11853;48.080;11.960;2023-06-10T08:52:37;5.50;;;4.90;;
23362;SDS011;11853;48.080;11.960;2023-06-10T08:55:11;5.18;;;4.78;;
23362;SDS011;11853;48.080;11.960;2023-06-10T08:57:41;17.65;;;6.28;;
23362;SDS011;11853;48.080;11.960;2023-06-10T09:00:08;5.72;;;4.75;;
23362;SDS011;11853;48.080;11.960;2023-06-10T09:02:34;4.90;;;4.45;;
23362;SDS011;11853;48.080;11.960;2023-06-10T09:05:01;4.05;;;3.65;;
23362;SDS011;11853;48.080;11.960;2023-06-10T09:07:27;3.50;;;3.20;;
23362;SDS011;11853;48.080;11.960;2023-06-10T09:10:01;4.35;;;3.97;;
23362;SDS011;11853;48.080;11.960;2023-06-10T09:12:32;3.73;;;3.43;;
23362;SDS011;11853;48.080;11.960;2023-06-10T09:15:00;3.75;;;3.45;;
23362;SDS011;11853;48.080;11.960;2023-06-10T09:17:26;4.13;;;3.83;;
23362;SDS011;11853;48.080;11.960;2023-06-10T09:19:52;4.43;;;3.97;;
23362;SDS011;11853;48.080;11.960;2023-06-10T09:22:21;3.50;;;3.30;;
23362;SDS011;11853;48.080;11.960;2023-06-10T09:24:47;3.72;;;3.20;;
23362;SDS011;11853;48.080;11.960;2023-06-10T09:27:13;5.95;;;3.03;;
23362;SDS011;11853;48.080;11.960;2023-06-10T09:29:46;4.53;;;3.97;;
23362;SDS011;11853;48.080;11.960;2023-06-10T09:32:13;3.58;;;3.28;;
23362;SDS011;11853;48.080;11.960;2023-06-10T09:34:39;7.53;;;4.60;;
23362;SDS011;11853;48.080;11.960;2023-06-10T09:37:06;4.50;;;4.10;;
23362;SDS011;11853;48.080;11.960;2023-06-10T09:39:33;4.03;;;3.72;;
23362;SDS011;11853;48.080;11.960;2023-06-10T09:41:59;4.35;;;3.95;;
23362;SDS011;11853;48.080;11.960;2023-06-10T09:44:24;3.80;;;3.50;;
23362;SDS011;11853;48.080;11.960;2023-06-10T09:46:50;13.98;;;5.03;;
23362;SDS011;11853;48.080;11.960;2023-06-10T09:49:16;4.90;;;3.80;;
23362;SDS011;11853;48.080;11.960;2023-06-10T09:51:49;3.05;;;2.85;;
23362;SDS011;11853;48.080;11.960;2023-06-10T09:54:16;2.65;;;2.38;;
23362;SDS011;11853;48.080;11.960;2023-06-10T09:56:43;3.13;;;2.92;;
23362;SDS011;11853;48.080;11.960;2023-06-10T09:59:16;2.75;;;2.55;;
23362;SDS011;11853;48.080;11.960;2023-06-10T10:01:55;2.95;;;2.75;;
23362;SDS011;11853;48.080;11.960;2023-06-10T10:04:24;2.60;;;2.50;;
23362;SDS011;11853;48.080;11.960;2023-06-10T10:06:50;3.53;;;2.50;;
23362;SDS011;11853;48.080;11.960;2023-06-10T10:09:16;3.20;;;3.00;;
23362;SDS011;11853;48.080;11.960;2023-06-10T10:11:42;3.63;;;3.22;;
23362;SDS011;11853;48.080;11.960;2023-06-10T10:14:10;3.65;;;3.28;;
23362;SDS011;11853;48.080;11.960;2023-06-10T10:16:37;3.75;;;3.45;;
23362;SDS011;11853;48.080;11.960;2023-06-10T10:19:16;3.97;;;3.67;;
23362;SDS011;11853;48.080;11.960;2023-06-10T10:21:50;5.60;;;3.78;;
23362;SDS011;11853;48.080;11.960;2023-06-10T10:24:21;3.90;;;3.60;;
23362;SDS011;11853;48.080;11.960;2023-06-10T10:26:48;4.10;;;3.80;;
23362;SDS011;11853;48.080;11.960;2023-06-10T10:29:20;4.32;;;3.92;;
23362;SDS011;11853;48.080;11.960;2023-06-10T10:31:52;4.85;;;4.00;;
23362;SDS011;11853;48.080;11.960;2023-06-10T10:34:25;4.72;;;4.35;;
23362;SDS011;11853;48.080;11.960;2023-06-10T10:37:01;3.40;;;3.20;;
23362;SDS011;11853;48.080;11.960;2023-06-10T10:39:28;4.13;;;3.78;;
23362;SDS011;11853;48.080;11.960;2023-06-10T10:41:55;3.22;;;3.03;;
23362;SDS011;11853;48.080;11.960;2023-06-10T10:44:22;5.20;;;3.22;;
23362;SDS011;11853;48.080;11.960;2023-06-10T10:46:49;3.63;;;3.42;;
23362;SDS011;11853;48.080;11.960;2023-06-10T10:49:16;3.80;;;3.50;;
23362;SDS011;11853;48.080;11.960;2023-06-10T10:52:00;5.03;;;3.78;;
23362;SDS011;11853;48.080;11.960;2023-06-10T10:54:30;4.00;;;3.70;;
23362;SDS011;11853;48.080;11.960;2023-06-10T10:57:13;3.85;;;3.53;;
23362;SDS011;11853;48.080;11.960;2023-06-10T10:59:44;3.20;;;3.00;;
23362;SDS011;11853;48.080;11.960;2023-06-10T11:04:56;3.53;;;3.20;;
23362;SDS011;11853;48.080;11.960;2023-06-10T11:07:24;4.13;;;3.70;;
23362;SDS011;11853;48.080;11.960;2023-06-10T11:09:57;3.80;;;3.50;;
23362;SDS011;11853;48.080;11.960;2023-06-10T11:15:17;4.53;;;4.13;;
23362;SDS011;11853;48.080;11.960;2023-06-10T11:33:47;3.33;;;3.13;;
23362;SDS011;11853;48.080;11.960;2023-06-10T11:36:14;3.38;;;3.08;;
23362;SDS011;11853;48.080;11.960;2023-06-10T11:38:43;3.38;;;3.10;;
23362;SDS011;11853;48.080;11.960;2023-06-10T11:41:10;3.00;;;2.80;;
23362;SDS011;11853;48.080;11.960;2023-06-10T11:43:37;3.08;;;2.88;;
23362;SDS011;11853;48.080;11.960;2023-06-10T11:46:07;4.28;;;3.88;;
23362;SDS011;11853;48.080;11.960;2023-06-10T11:48:33;3.13;;;2.92;;
23362;SDS011;11853;48.080;11.960;2023-06-10T11:51:04;3.65;;;3.22;;
23362;SDS011;11853;48.080;11.960;2023-06-10T11:53:49;4.50;;;3.38;;
23362;SDS011;11853;48.080;11.960;2023-06-10T11:59:22;2.80;;;2.60;;
23362;SDS011;11853;48.080;11.960;2023-06-10T12:02:45;5.28;;;3.60;;
23362;SDS011;11853;48.080;11.960;2023-06-10T12:08:11;7.47;;;6.88;;
23362;SDS011;11853;48.080;11.960;2023-06-10T12:10:41;7.38;;;6.68;;
23362;SDS011;11853;48.080;11.960;2023-06-10T12:13:10;6.13;;;5.63;;
23362;SDS011;11853;48.080;11.960;2023-06-10T12:15:36;5.30;;;4.90;;
23362;SDS011;11853;48.080;11.960;2023-06-10T12:18:02;5.03;;;4.53;;
23362;SDS011;11853;48.080;11.960;2023-06-10T12:20:29;5.10;;;4.63;;
23362;SDS011;11853;48.080;11.960;2023-06-10T12:22:58;4.95;;;4.47;;
23362;SDS011;11853;48.080;11.960;2023-06-10T12:25:25;5.15;;;4.75;;
23362;SDS011;11853;48.080;11.960;2023-06-10T12:27:53;5.22;;;4.60;;
23362;SDS011;11853;48.080;11.960;2023-06-10T12:30:21;5.15;;;4.75;;
23362;SDS011;11853;48.080;11.960;2023-06-10T12:32:49;6.07;;;5.57;;
23362;SDS011;11853;48.080;11.960;2023-06-10T12:35:16;5.70;;;5.20;;
23362;SDS011;11853;48.080;11.960;2023-06-10T12:37:54;5.90;;;5.05;;
23362;SDS011;11853;48.080;11.960;2023-06-10T12:40:28;7.30;;;5.15;;
23362;SDS011;11853;48.080;11.960;2023-06-10T12:42:56;5.50;;;5.00;;
23362;SDS011;11853;48.080;11.960;2023-06-10T12:48:43;5.63;;;4.40;;
23362;SDS011;11853;48.080;11.960;2023-06-10T12:50:46;4.40;;;4.00;;
23362;SDS011;11853;48.080;11.960;2023-06-10T12:55:41;6.10;;;5.55;;
23362;SDS011;11853;48.080;11.960;2023-06-10T12:58:07;6.45;;;5.78;;
23362;SDS011;11853;48.080;11.960;2023-06-10T13:00:33;8.63;;;7.85;;
23362;SDS011;11853;48.080;11.960;2023-06-10T13:03:00;5.13;;;4.72;;
23362;SDS011;11853;48.080;11.960;2023-06-10T13:05:27;6.40;;;5.90;;
23362;SDS011;11853;48.080;11.960;2023-06-10T13:07:54;5.05;;;4.65;;
23362;SDS011;11853;48.080;11.960;2023-06-10T13:10:21;4.57;;;4.18;;
23362;SDS011;11853;48.080;11.960;2023-06-10T13:12:47;4.38;;;4.07;;
23362;SDS011;11853;48.080;11.960;2023-06-10T13:15:13;4.53;;;4.15;;
23362;SDS011;11853;48.080;11.960;2023-06-10T13:17:42;4.55;;;4.15;;
23362;SDS011;11853;48.080;11.960;2023-06-10T13:20:09;4.78;;;4.30;;
23362;SDS011;11853;48.080;11.960;2023-06-10T13:22:35;4.28;;;3.88;;
23362;SDS011;11853;48.080;11.960;2023-06-10T13:25:05;4.63;;;4.22;;
23362;SDS011;11853;48.080;11.960;2023-06-10T13:27:35;4.47;;;4.18;;
23362;SDS011;11853;48.080;11.960;2023-06-10T13:30:04;4.30;;;4.00;;
23362;SDS011;11853;48.080;11.960;2023-06-10T13:32:31;4.60;;;4.30;;
23362;SDS011;11853;48.080;11.960;2023-06-10T13:34:56;4.05;;;3.75;;
23362;SDS011;11853;48.080;11.960;2023-06-10T13:37:22;4.20;;;3.90;;
23362;SDS011;11853;48.080;11.960;2023-06-10T13:39:48;4.43;;;4.13;;
23362;SDS011;11853;48.080;11.960;2023-06-10T13:42:16;4.35;;;3.95;;
23362;SDS011;11853;48.080;11.960;2023-06-10T13:44:43;4.25;;;3.95;;
23362;SDS011;11853;48.080;11.960;2023-06-10T13:47:08;4.90;;;4.50;;
23362;SDS011;11853;48.080;11.960;2023-06-10T13:49:34;3.78;;;3.47;;
23362;SDS011;11853;48.080;11.960;2023-06-10T13:52:01;4.65;;;4.25;;
23362;SDS011;11853;48.080;11.960;2023-06-10T13:54:27;4.00;;;3.70;;
23362;SDS011;11853;48.080;11.960;2023-06-10T13:56:52;4.75;;;4.35;;
23362;SDS011;11853;48.080;11.960;2023-06-10T13:59:18;4.40;;;4.00;;
23362;SDS011;11853;48.080;11.960;2023-06-10T14:01:45;4.20;;;3.90;;
23362;SDS011;11853;48.080;11.960;2023-06-10T14:04:11;4.25;;;3.95;;
23362;SDS011;11853;48.080;11.960;2023-06-10T14:06:36;3.95;;;3.75;;
23362;SDS011;11853;48.080;11.960;2023-06-10T14:09:02;3.85;;;3.60;;
23362;SDS011;11853;48.080;11.960;2023-06-10T14:11:28;4.05;;;3.75;;
23362;SDS011;11853;48.080;11.960;2023-06-10T14:13:54;3.80;;;3.50;;
23362;SDS011;11853;48.080;11.960;2023-06-10T14:16:23;4.32;;;3.92;;
23362;SDS011;11853;48.080;11.960;2023-06-10T14:18:51;3.70;;;3.40;;
23362;SDS011;11853;48.080;11.960;2023-06-10T14:21:17;4.00;;;3.70;;
23362;SDS011;11853;48.080;11.960;2023-06-10T14:23:43;4.35;;;3.95;;
23362;SDS011;11853;48.080;11.960;2023-06-10T14:26:09;3.95;;;3.60;;
23362;SDS011;11853;48.080;11.960;2023-06-10T14:28:35;3.88;;;3.58;;
23362;SDS011;11853;48.080;11.960;2023-06-10T14:31:01;3.60;;;3.30;;
23362;SDS011;11853;48.080;11.960;2023-06-10T14:33:27;3.30;;;3.10;;
23362;SDS011;11853;48.080;11.960;2023-06-10T14:35:53;3.20;;;2.90;;
23362;SDS011;11853;48.080;11.960;2023-06-10T14:38:19;3.05;;;2.85;;
23362;SDS011;11853;48.080;11.960;2023-06-10T14:40:45;3.38;;;3.05;;
23362;SDS011;11853;48.080;11.960;2023-06-10T14:43:10;3.88;;;3.25;;
23362;SDS011;11853;48.080;11.960;2023-06-10T14:45:36;3.47;;;3.28;;
23362;SDS011;11853;48.080;11.960;2023-06-10T14:48:03;3.40;;;3.20;;
23362;SDS011;11853;48.080;11.960;2023-06-10T14:50:30;3.88;;;3.58;;
23362;SDS011;11853;48.080;11.960;2023-06-10T14:52:57;3.70;;;3.40;;
23362;SDS011;11853;48.080;11.960;2023-06-10T14:55:23;3.90;;;3.50;;
23362;SDS011;11853;48.080;11.960;2023-06-10T14:57:49;4.15;;;3.85;;
23362;SDS011;11853;48.080;11.960;2023-06-10T15:00:15;4.60;;;4.20;;
23362;SDS011;11853;48.080;11.960;2023-06-10T15:02:44;4.90;;;4.50;;
23362;SDS011;11853;48.080;11.960;2023-06-10T15:05:13;4.72;;;4.38;;
23362;SDS011;11853;48.080;11.960;2023-06-10T15:07:42;4.57;;;4.18;;
23362;SDS011;11853;48.080;11.960;2023-06-10T15:10:09;5.20;;;4.70;;
23362;SDS011;11853;48.080;11.960;2023-06-10T15:12:35;4.20;;;3.90;;
23362;SDS011;11853;48.080;11.960;2023-06-10T15:15:01;5.03;;;4.65;;
23362;SDS011;11853;48.080;11.960;2023-06-10T15:17:27;4.68;;;4.30;;